createdAt,value
2019-01-29T00:07:35.158Z,2.41
2019-01-29T00:08:35.354Z,2.57
2019-01-29T00:09:34.043Z,2.49
2019-01-29T00:10:34.266Z,2.52
2019-01-29T00:11:34.071Z,2.53
2019-01-29T00:13:33.957Z,2.52
2019-01-29T00:14:34.833Z,2.49
2019-01-29T00:15:33.873Z,2.52
2019-01-29T00:16:33.848Z,2.49
2019-01-29T00:17:33.816Z,2.54
2019-01-29T00:18:33.815Z,2.48
2019-01-29T00:19:33.791Z,2.46
2019-01-29T00:20:33.761Z,2.41
2019-01-29T00:21:33.779Z,2.48
2019-01-29T00:22:33.781Z,2.38
2019-01-29T00:23:33.755Z,2.53
2019-01-29T00:24:33.731Z,2.46
2019-01-29T00:25:33.714Z,2.49
2019-01-29T00:26:33.741Z,2.53
2019-01-29T00:27:33.704Z,2.49
2019-01-29T00:28:33.701Z,2.49
2019-01-29T00:29:33.719Z,2.49
2019-01-29T00:30:33.682Z,2.52
2019-01-29T00:31:33.664Z,2.38
2019-01-29T00:32:33.678Z,2.49
2019-01-29T00:33:34.151Z,2.48
2019-01-29T00:34:33.634Z,2.52
2019-01-29T00:35:33.624Z,2.49
2019-01-29T00:36:33.598Z,2.53
2019-01-29T00:37:35.156Z,2.52
2019-01-29T00:38:33.568Z,2.49
2019-01-29T00:39:33.595Z,2.53
2019-01-29T00:40:33.577Z,2.45
2019-01-29T00:42:34.756Z,2.46
2019-01-29T00:43:33.533Z,2.43
2019-01-29T00:44:33.549Z,2.46
2019-01-29T00:46:34.662Z,2.53
2019-01-29T00:47:33.705Z,2.49
2019-01-29T00:48:33.737Z,2.59
2019-01-29T00:49:33.640Z,2.49
2019-01-29T00:50:33.633Z,2.46
2019-01-29T00:51:33.653Z,2.53
2019-01-29T00:52:41.680Z,2.39
2019-01-29T00:53:34.431Z,2.38
2019-01-29T00:54:33.419Z,2.54
2019-01-29T00:55:33.429Z,2.53
2019-01-29T00:56:33.673Z,2.53
2019-01-29T00:58:34.562Z,2.35
2019-01-29T00:59:54.349Z,2.41
2019-01-29T01:00:33.351Z,2.42
2019-01-29T01:01:33.345Z,2.38
2019-01-29T01:02:33.322Z,2.38
2019-01-29T01:03:33.353Z,2.36
2019-01-29T01:05:34.459Z,2.42
2019-01-29T01:06:33.289Z,2.42
2019-01-29T01:07:33.266Z,2.35
2019-01-29T01:09:34.425Z,2.36
2019-01-29T01:10:33.238Z,2.25
2019-01-29T01:11:33.224Z,2.34
2019-01-29T01:12:54.225Z,2.25
2019-01-29T01:13:33.199Z,2.25
2019-01-29T01:14:33.211Z,2.25
2019-01-29T01:15:33.194Z,2.12
2019-01-29T01:16:33.196Z,2.06
2019-01-29T01:18:34.169Z,1.87
2019-01-29T01:19:33.258Z,1.77
2019-01-29T01:20:33.133Z,1.70
2019-01-29T01:21:33.113Z,1.63
2019-01-29T01:22:33.102Z,1.68
2019-01-29T01:24:34.299Z,1.55
2019-01-29T01:25:33.310Z,1.62
2019-01-29T01:26:33.238Z,1.62
2019-01-29T01:27:33.223Z,1.55
2019-01-29T01:28:33.035Z,1.60
2019-01-29T01:29:33.167Z,1.50
2019-01-29T01:30:33.041Z,1.58
2019-01-29T01:31:33.033Z,1.62
2019-01-29T01:32:33.009Z,1.58
2019-01-29T01:33:33.011Z,1.62
2019-01-29T01:34:32.994Z,1.59
2019-01-29T01:35:32.984Z,1.54
2019-01-29T01:36:32.967Z,1.58
2019-01-29T01:37:32.947Z,1.58
2019-01-29T01:38:32.949Z,1.58
2019-01-29T01:39:32.925Z,1.63
2019-01-29T01:40:32.926Z,1.60
2019-01-29T01:41:32.926Z,1.60
2019-01-29T01:42:32.895Z,1.62
2019-01-29T01:43:32.889Z,1.58
2019-01-29T01:44:32.921Z,1.52
2019-01-29T01:45:32.978Z,1.59
2019-01-29T01:46:32.847Z,1.58
2019-01-29T01:47:32.858Z,1.63
2019-01-29T01:48:32.886Z,1.65
2019-01-29T01:49:32.839Z,1.63
2019-01-29T01:50:32.831Z,1.62
2019-01-29T01:51:32.835Z,1.60
2019-01-29T01:52:32.857Z,1.60
2019-01-29T01:53:32.773Z,1.59
2019-01-29T01:54:32.767Z,1.59
2019-01-29T01:55:32.805Z,1.68
2019-01-29T01:56:32.743Z,1.60
2019-01-29T01:57:32.731Z,1.68
2019-01-29T01:58:32.745Z,1.63
2019-01-29T01:59:32.705Z,1.68
2019-01-29T02:00:32.699Z,1.68
2019-01-29T02:01:32.709Z,1.59
2019-01-29T02:02:32.681Z,1.70
2019-01-29T02:03:32.663Z,1.72
2019-01-29T02:04:32.669Z,1.66
2019-01-29T02:05:32.642Z,1.66
2019-01-29T02:06:32.653Z,1.72
2019-01-29T02:07:32.625Z,1.81
2019-01-29T02:08:32.614Z,1.76
2019-01-29T02:09:32.607Z,1.72
2019-01-29T02:10:32.604Z,1.79
2019-01-29T02:11:32.595Z,1.72
2019-01-29T02:12:32.575Z,1.77
2019-01-29T02:13:32.564Z,1.69
2019-01-29T02:14:32.545Z,1.79
2019-01-29T02:15:32.546Z,1.79
2019-01-29T02:16:32.555Z,1.79
2019-01-29T02:17:32.543Z,1.73
2019-01-29T02:18:32.517Z,1.76
2019-01-29T02:19:32.497Z,1.79
2019-01-29T02:20:32.481Z,1.69
2019-01-29T02:21:32.505Z,1.77
2019-01-29T02:22:32.459Z,1.73
2019-01-29T02:23:32.455Z,1.77
2019-01-29T02:24:32.437Z,1.76
2019-01-29T02:25:32.470Z,1.72
2019-01-29T02:26:32.422Z,1.72
2019-01-29T02:27:32.427Z,1.70
2019-01-29T02:28:32.403Z,1.76
2019-01-29T02:29:32.393Z,1.76
2019-01-29T02:30:32.374Z,1.72
2019-01-29T02:31:32.382Z,1.73
2019-01-29T02:32:32.381Z,1.66
2019-01-29T02:33:32.343Z,1.69
2019-01-29T02:34:32.340Z,1.72
2019-01-29T02:35:32.327Z,1.66
2019-01-29T02:36:32.304Z,1.68
2019-01-29T02:37:32.322Z,1.62
2019-01-29T02:38:32.291Z,1.62
2019-01-29T02:39:32.290Z,1.65
2019-01-29T02:40:32.269Z,1.66
2019-01-29T02:41:32.263Z,1.68
2019-01-29T02:42:32.273Z,1.66
2019-01-29T02:43:32.228Z,1.65
2019-01-29T02:44:32.239Z,1.65
2019-01-29T02:45:32.235Z,1.63
2019-01-29T02:46:32.203Z,1.54
2019-01-29T02:47:32.213Z,1.63
2019-01-29T02:48:32.179Z,1.52
2019-01-29T02:49:32.179Z,1.65
2019-01-29T02:50:32.175Z,1.60
2019-01-29T02:51:32.181Z,1.50
2019-01-29T02:52:32.180Z,1.66
2019-01-29T02:53:32.128Z,1.54
2019-01-29T02:54:32.120Z,1.54
2019-01-29T02:55:32.108Z,1.42
2019-01-29T02:56:32.105Z,1.48
2019-01-29T02:57:32.109Z,1.36
2019-01-29T02:58:32.080Z,1.42
2019-01-29T02:59:32.061Z,1.32
2019-01-29T03:00:32.061Z,1.37
2019-01-29T03:01:32.037Z,1.37
2019-01-29T03:02:32.049Z,1.27
2019-01-29T03:03:32.025Z,1.26
2019-01-29T03:04:32.017Z,1.14
2019-01-29T03:05:32.009Z,1.22
2019-01-29T03:06:32.015Z,1.16
2019-01-29T03:07:32.047Z,1.16
2019-01-29T03:08:31.986Z,1.22
2019-01-29T03:09:31.993Z,1.22
2019-01-29T03:10:31.950Z,1.24
2019-01-29T03:11:31.965Z,1.16
2019-01-29T03:12:31.945Z,1.22
2019-01-29T03:13:31.920Z,1.15
2019-01-29T03:14:31.916Z,1.26
2019-01-29T03:15:31.905Z,1.22
2019-01-29T03:16:31.884Z,1.08
2019-01-29T03:17:31.943Z,1.09
2019-01-29T03:18:32.011Z,1.09
2019-01-29T03:19:31.870Z,1.00
2019-01-29T03:20:31.859Z,0.98
2019-01-29T03:21:31.869Z,1.04
2019-01-29T03:22:31.840Z,0.94
2019-01-29T03:23:31.898Z,1.04
2019-01-29T03:24:31.819Z,1.00
2019-01-29T03:25:31.805Z,0.90
2019-01-29T03:26:31.827Z,0.91
2019-01-29T03:27:31.777Z,0.90
2019-01-29T03:28:31.787Z,0.87
2019-01-29T03:29:31.946Z,0.94
2019-01-29T03:30:33.787Z,0.94
2019-01-29T03:31:31.747Z,0.78
2019-01-29T03:32:31.729Z,0.83
2019-01-29T03:33:31.747Z,0.86
2019-01-29T03:34:31.704Z,0.86
2019-01-29T03:35:31.692Z,0.83
2019-01-29T03:36:31.685Z,0.86
2019-01-29T03:37:31.666Z,0.75
2019-01-29T03:38:31.786Z,0.76
2019-01-29T03:39:31.693Z,0.76
2019-01-29T03:40:31.641Z,0.76
2019-01-29T03:41:31.675Z,0.62
2019-01-29T03:42:31.652Z,0.69
2019-01-29T03:43:31.771Z,0.68
2019-01-29T03:44:31.644Z,0.69
2019-01-29T03:45:31.648Z,0.69
2019-01-29T03:47:32.803Z,0.69
2019-01-29T03:48:31.582Z,0.78
2019-01-29T03:49:31.551Z,0.72
2019-01-29T03:50:31.530Z,0.72
2019-01-29T03:51:31.541Z,0.75
2019-01-29T03:52:31.514Z,0.75
2019-01-29T03:53:37.867Z,0.73
2019-01-29T03:54:32.512Z,0.69
2019-01-29T03:55:31.535Z,0.73
2019-01-29T03:56:31.515Z,0.76
2019-01-29T03:57:31.483Z,0.76
2019-01-29T03:58:31.480Z,0.73
2019-01-29T03:59:31.446Z,0.72
2019-01-29T04:00:31.478Z,0.72
2019-01-29T04:01:31.433Z,0.73
2019-01-29T04:02:31.413Z,0.66
2019-01-29T04:03:31.397Z,0.72
2019-01-29T04:04:31.425Z,0.73
2019-01-29T04:05:31.384Z,0.75
2019-01-29T04:06:31.362Z,0.72
2019-01-29T04:07:31.361Z,0.76
2019-01-29T04:08:31.353Z,0.70
2019-01-29T04:09:31.357Z,0.66
2019-01-29T04:10:31.319Z,0.70
2019-01-29T04:11:31.322Z,0.75
2019-01-29T04:12:31.301Z,0.69
2019-01-29T04:13:31.318Z,0.68
2019-01-29T04:14:31.315Z,0.66
2019-01-29T04:15:31.264Z,0.68
2019-01-29T04:16:31.278Z,0.66
2019-01-29T04:17:31.241Z,0.68
2019-01-29T04:18:31.239Z,0.65
2019-01-29T04:19:31.252Z,0.61
2019-01-29T04:20:31.213Z,0.66
2019-01-29T04:21:31.199Z,0.68
2019-01-29T04:22:31.198Z,0.66
2019-01-29T04:23:31.185Z,0.69
2019-01-29T04:24:31.201Z,0.66
2019-01-29T04:25:31.172Z,0.66
2019-01-29T04:26:31.181Z,0.62
2019-01-29T04:27:31.149Z,0.65
2019-01-29T04:28:31.137Z,0.61
2019-01-29T04:29:31.144Z,0.65
2019-01-29T04:30:31.121Z,0.58
2019-01-29T04:31:31.121Z,0.60
2019-01-29T04:32:31.097Z,0.68
2019-01-29T04:33:31.088Z,0.60
2019-01-29T04:34:31.084Z,0.62
2019-01-29T04:35:31.109Z,0.61
2019-01-29T04:36:31.058Z,0.61
2019-01-29T04:37:31.027Z,0.50
2019-01-29T04:38:31.023Z,0.46
2019-01-29T04:39:31.025Z,0.51
2019-01-29T04:40:31.049Z,0.50
2019-01-29T04:41:31.000Z,0.47
2019-01-29T04:42:30.995Z,0.42
2019-01-29T04:43:30.995Z,0.44
2019-01-29T04:44:30.956Z,0.53
2019-01-29T04:45:30.971Z,0.44
2019-01-29T04:46:30.932Z,0.42
2019-01-29T04:47:30.929Z,0.49
2019-01-29T04:48:30.928Z,0.53
2019-01-29T04:49:30.902Z,0.50
2019-01-29T04:50:30.907Z,0.39
2019-01-29T04:51:30.886Z,0.39
2019-01-29T04:52:30.877Z,0.47
2019-01-29T04:53:30.869Z,0.39
2019-01-29T04:54:30.864Z,0.38
2019-01-29T04:55:30.882Z,0.46
2019-01-29T04:56:30.826Z,0.49
2019-01-29T04:57:30.820Z,0.55
2019-01-29T04:58:30.805Z,0.47
2019-01-29T04:59:30.827Z,0.41
2019-01-29T05:00:30.815Z,0.44
2019-01-29T05:01:30.771Z,0.41
2019-01-29T05:02:30.782Z,0.44
2019-01-29T05:03:30.752Z,0.35
2019-01-29T05:04:30.744Z,0.39
2019-01-29T05:05:30.757Z,0.46
2019-01-29T05:06:30.725Z,0.39
2019-01-29T05:07:30.707Z,0.35
2019-01-29T05:08:30.765Z,0.33
2019-01-29T05:09:30.711Z,0.42
2019-01-29T05:10:30.693Z,0.39
2019-01-29T05:11:30.674Z,0.38
2019-01-29T05:12:30.656Z,0.42
2019-01-29T05:13:37.183Z,0.38
2019-01-29T05:14:30.643Z,0.41
2019-01-29T05:15:30.650Z,0.46
2019-01-29T05:16:30.622Z,0.42
2019-01-29T05:17:30.624Z,0.33
2019-01-29T05:18:32.054Z,0.42
2019-01-29T05:19:30.590Z,0.36
2019-01-29T05:20:30.602Z,0.33
2019-01-29T05:21:30.561Z,0.35
2019-01-29T05:22:30.563Z,0.36
2019-01-29T05:23:30.559Z,0.23
2019-01-29T05:24:30.529Z,0.24
2019-01-29T05:25:30.572Z,0.31
2019-01-29T05:26:30.515Z,0.11
2019-01-29T05:27:30.522Z,0.17
2019-01-29T05:28:30.506Z,0.15
2019-01-29T05:29:31.132Z,0.18
2019-01-29T05:30:30.465Z,0.11
2019-01-29T05:31:30.577Z,0.11
2019-01-29T05:32:30.465Z,0.13
2019-01-29T05:33:30.438Z,0.13
2019-01-29T05:34:30.439Z,0.13
2019-01-29T05:35:30.414Z,0.14
2019-01-29T05:36:30.420Z,0.14
2019-01-29T05:37:30.416Z,0.17
2019-01-29T05:38:30.402Z,0.04
2019-01-29T05:39:30.393Z,0.08
2019-01-29T05:40:30.401Z,0.07
2019-01-29T05:41:30.380Z,0.11
2019-01-29T05:42:30.352Z,0.03
2019-01-29T05:43:30.328Z,0.02
2019-01-29T05:44:30.326Z,0.02
2019-01-29T05:45:30.318Z,-0.03
2019-01-29T05:46:30.325Z,-0.04
2019-01-29T05:47:30.318Z,-0.05
2019-01-29T05:48:30.278Z,-0.01
2019-01-29T05:49:30.309Z,-0.03
2019-01-29T05:50:30.262Z,-0.14
2019-01-29T05:51:30.267Z,-0.14
2019-01-29T05:52:30.250Z,-0.07
2019-01-29T05:53:30.257Z,-0.19
2019-01-29T05:54:30.220Z,-0.16
2019-01-29T05:55:30.214Z,-0.11
2019-01-29T05:56:30.230Z,-0.10
2019-01-29T05:57:30.192Z,-0.23
2019-01-29T05:58:30.190Z,-0.19
2019-01-29T05:59:30.162Z,-0.18
2019-01-29T06:00:30.163Z,-0.15
2019-01-29T06:01:30.168Z,-0.15
2019-01-29T06:02:30.128Z,-0.22
2019-01-29T06:03:30.126Z,-0.26
2019-01-29T06:04:30.130Z,-0.39
2019-01-29T06:05:30.148Z,-0.33
2019-01-29T06:06:30.159Z,-0.26
2019-01-29T06:07:30.084Z,-0.31
2019-01-29T06:08:30.067Z,-0.28
2019-01-29T06:09:30.076Z,-0.29
2019-01-29T06:10:30.084Z,-0.29
2019-01-29T06:11:30.110Z,-0.26
2019-01-29T06:12:30.071Z,-0.36
2019-01-29T06:13:30.017Z,-0.39
2019-01-29T06:14:30.009Z,-0.29
2019-01-29T06:15:30.014Z,-0.31
2019-01-29T06:16:30.013Z,-0.29
2019-01-29T06:17:30.002Z,-0.42
2019-01-29T06:18:29.962Z,-0.39
2019-01-29T06:19:29.951Z,-0.40
2019-01-29T06:20:29.958Z,-0.43
2019-01-29T06:21:29.949Z,-0.39
2019-01-29T06:22:29.968Z,-0.34
2019-01-29T06:23:29.948Z,-0.34
2019-01-29T06:24:29.905Z,-0.40
2019-01-29T06:25:29.902Z,-0.44
2019-01-29T06:26:29.903Z,-0.40
2019-01-29T06:27:30.016Z,-0.40
2019-01-29T06:28:29.888Z,-0.39
2019-01-29T06:29:29.944Z,-0.47
2019-01-29T06:30:29.907Z,-0.39
2019-01-29T06:31:29.871Z,-0.44
2019-01-29T06:32:29.968Z,-0.42
2019-01-29T06:33:29.856Z,-0.42
2019-01-29T06:34:29.856Z,-0.44
2019-01-29T06:35:29.927Z,-0.43
2019-01-29T06:36:29.857Z,-0.44
2019-01-29T06:37:29.916Z,-0.42
2019-01-29T06:38:29.888Z,-0.42
2019-01-29T06:39:29.780Z,-0.40
2019-01-29T06:40:29.778Z,-0.42
2019-01-29T06:41:29.732Z,-0.44
2019-01-29T06:42:29.740Z,-0.46
2019-01-29T06:43:29.778Z,-0.42
2019-01-29T06:44:29.758Z,-0.44
2019-01-29T06:45:29.732Z,-0.36
2019-01-29T06:47:30.952Z,-0.43
2019-01-29T06:48:50.722Z,-0.44
2019-01-29T06:49:29.653Z,-0.42
2019-01-29T06:50:29.698Z,-0.43
2019-01-29T06:51:29.680Z,-0.43
2019-01-29T06:52:29.641Z,-0.43
2019-01-29T06:53:29.739Z,-0.40
2019-01-29T06:54:34.125Z,-0.39
2019-01-29T06:55:29.661Z,-0.39
2019-01-29T06:56:29.726Z,-0.43
2019-01-29T06:57:29.634Z,-0.40
2019-01-29T06:58:29.700Z,-0.39
2019-01-29T06:59:29.603Z,-0.42
2019-01-29T07:00:29.590Z,-0.28
2019-01-29T07:02:30.750Z,-0.34
2019-01-29T07:03:29.672Z,-0.29
2019-01-29T07:05:30.668Z,-0.33
2019-01-29T07:06:29.526Z,-0.21
2019-01-29T07:07:29.576Z,-0.19
2019-01-29T07:08:29.477Z,-0.21
2019-01-29T07:10:30.700Z,-0.18
2019-01-29T07:11:29.798Z,-0.19
2019-01-29T07:12:29.615Z,-0.22
2019-01-29T07:13:29.418Z,-0.16
2019-01-29T07:14:29.418Z,-0.14
2019-01-29T07:15:29.430Z,-0.05
2019-01-29T07:16:29.430Z,-0.07
2019-01-29T07:17:29.428Z,-0.01
2019-01-29T07:18:29.448Z,-0.05
2019-01-29T07:19:29.401Z,-0.08
2019-01-29T07:20:29.357Z,-0.10
2019-01-29T07:21:29.364Z,-0.10
2019-01-29T07:22:29.350Z,-0.08
2019-01-29T07:23:29.394Z,-0.11
2019-01-29T07:24:29.334Z,-0.07
2019-01-29T07:25:29.362Z,-0.16
2019-01-29T07:27:30.491Z,-0.16
2019-01-29T07:28:50.321Z,-0.18
2019-01-29T07:29:50.228Z,-0.08
2019-01-29T07:30:50.293Z,-0.07
2019-01-29T07:31:29.229Z,-0.05
2019-01-29T07:32:29.250Z,0.00
2019-01-29T07:33:29.457Z,0.00
2019-01-29T07:35:39.280Z,-0.03
2019-01-29T07:36:39.264Z,-0.01
2019-01-29T07:37:39.257Z,-0.08
2019-01-29T07:38:39.356Z,-0.01
2019-01-29T07:39:39.246Z,-0.05
2019-01-29T07:40:39.251Z,-0.04
2019-01-29T07:41:39.200Z,0.00
2019-01-29T07:42:39.235Z,0.00
2019-01-29T07:43:39.283Z,0.00
2019-01-29T07:44:39.270Z,-0.05
2019-01-29T07:45:39.257Z,0.03
2019-01-29T07:46:39.166Z,0.03
2019-01-29T07:47:39.146Z,0.11
2019-01-29T07:48:39.147Z,0.11
2019-01-29T07:49:39.256Z,0.08
2019-01-29T07:50:39.204Z,0.15
2019-01-29T07:52:40.290Z,0.11
2019-01-29T07:53:39.097Z,0.15
2019-01-29T07:54:39.105Z,0.18
2019-01-29T07:56:40.124Z,0.20
2019-01-29T07:57:39.080Z,0.32
2019-01-29T07:58:39.112Z,0.29
2019-01-29T07:59:39.164Z,0.42
2019-01-29T08:00:39.061Z,0.31
2019-01-29T08:02:40.229Z,0.33
2019-01-29T08:03:39.826Z,0.42
2019-01-29T08:04:39.124Z,0.50
2019-01-29T08:05:39.058Z,0.44
2019-01-29T08:07:40.128Z,0.51
2019-01-29T08:08:38.943Z,0.60
2019-01-29T08:09:38.974Z,0.57
2019-01-29T08:10:38.978Z,0.65
2019-01-29T08:11:38.913Z,0.60
2019-01-29T08:12:38.933Z,0.65
2019-01-29T08:13:38.936Z,0.55
2019-01-29T08:14:38.977Z,0.61
2019-01-29T08:15:38.913Z,0.65
2019-01-29T08:16:38.928Z,0.57
2019-01-29T08:18:40.022Z,0.70
2019-01-29T08:19:38.947Z,0.66
2019-01-29T08:20:38.858Z,0.70
2019-01-29T08:21:38.855Z,0.70
2019-01-29T08:22:38.791Z,0.78
2019-01-29T08:24:39.989Z,0.79
2019-01-29T08:25:47.379Z,0.80
2019-01-29T08:26:39.901Z,0.86
2019-01-29T08:27:38.747Z,0.84
2019-01-29T08:29:39.889Z,0.83
2019-01-29T08:30:38.905Z,0.80
2019-01-29T08:31:38.885Z,0.86
2019-01-29T08:32:38.698Z,0.73
2019-01-29T08:33:40.726Z,0.80
2019-01-29T08:34:38.665Z,0.78
2019-01-29T08:35:38.798Z,0.79
2019-01-29T08:36:38.773Z,0.80
2019-01-29T08:37:38.667Z,0.83
2019-01-29T08:39:39.783Z,0.96
2019-01-29T08:40:38.635Z,0.86
2019-01-29T08:41:38.603Z,0.97
2019-01-29T08:42:38.617Z,0.98
2019-01-29T08:43:38.588Z,1.02
2019-01-29T08:44:38.595Z,0.98
2019-01-29T08:45:41.282Z,0.97
2019-01-29T08:46:38.540Z,1.04
2019-01-29T08:48:38.531Z,1.00
2019-01-29T08:49:38.507Z,0.98
2019-01-29T08:50:38.534Z,1.04
2019-01-29T08:51:38.493Z,0.96
2019-01-29T08:52:38.493Z,1.05
2019-01-29T08:53:38.539Z,1.09
2019-01-29T08:54:38.471Z,1.11
2019-01-29T08:55:38.475Z,1.16
2019-01-29T08:56:38.439Z,1.20
2019-01-29T08:57:38.462Z,1.14
2019-01-29T08:58:38.451Z,1.12
2019-01-29T08:59:38.415Z,1.14
2019-01-29T09:00:38.583Z,1.15
2019-01-29T09:01:38.378Z,1.09
2019-01-29T09:02:38.449Z,1.15
2019-01-29T09:03:38.435Z,1.14
2019-01-29T09:04:38.385Z,1.12
2019-01-29T09:05:38.402Z,1.12
2019-01-29T09:06:38.477Z,1.16
2019-01-29T09:07:38.355Z,1.11
2019-01-29T09:08:38.387Z,1.12
2019-01-29T09:09:38.323Z,1.08
2019-01-29T09:10:38.275Z,1.22
2019-01-29T09:11:38.312Z,1.24
2019-01-29T09:12:38.341Z,1.29
2019-01-29T09:13:38.297Z,1.23
2019-01-29T09:14:38.289Z,1.22
2019-01-29T09:15:39.191Z,1.33
2019-01-29T09:16:38.275Z,1.36
2019-01-29T09:17:38.383Z,1.42
2019-01-29T09:18:38.289Z,1.40
2019-01-29T09:19:38.291Z,1.36
2019-01-29T09:20:40.191Z,1.41
2019-01-29T09:21:38.209Z,1.36
2019-01-29T09:22:38.179Z,1.44
2019-01-29T09:23:38.254Z,1.52
2019-01-29T09:24:38.145Z,1.48
2019-01-29T09:25:38.165Z,1.48
2019-01-29T09:26:38.190Z,1.51
2019-01-29T09:27:38.141Z,1.47
2019-01-29T09:28:42.219Z,1.48
2019-01-29T09:29:38.161Z,1.55
2019-01-29T09:30:38.066Z,1.50
2019-01-29T09:31:38.109Z,1.48
2019-01-29T09:32:39.763Z,1.50
2019-01-29T09:33:38.087Z,1.54
2019-01-29T09:34:38.119Z,1.54
2019-01-29T09:35:38.041Z,1.62
2019-01-29T09:36:38.114Z,1.60
2019-01-29T09:37:38.151Z,1.52
2019-01-29T09:38:38.061Z,1.63
2019-01-29T09:39:40.109Z,1.55
2019-01-29T09:40:40.051Z,1.60
2019-01-29T09:41:37.993Z,1.59
2019-01-29T09:42:38.181Z,1.59
2019-01-29T09:45:39.087Z,1.60
2019-01-29T09:46:59.003Z,1.63
2019-01-29T09:47:37.991Z,1.65
2019-01-29T09:48:37.980Z,1.59
2019-01-29T09:49:39.957Z,1.60
2019-01-29T09:50:38.025Z,1.63
2019-01-29T09:51:37.934Z,1.58
2019-01-29T09:52:38.121Z,1.62
2019-01-29T09:53:38.000Z,1.65
2019-01-29T09:54:37.957Z,1.72
2019-01-29T09:55:37.917Z,1.76
2019-01-29T09:56:37.867Z,1.81
2019-01-29T09:57:37.882Z,1.80
2019-01-29T09:58:37.941Z,1.70
2019-01-29T09:59:37.868Z,1.73
2019-01-29T10:00:37.827Z,1.76
2019-01-29T10:01:37.897Z,1.72
2019-01-29T10:02:37.823Z,1.77
2019-01-29T10:03:37.990Z,1.77
2019-01-29T10:04:37.789Z,1.81
2019-01-29T10:05:38.633Z,1.84
2019-01-29T10:06:37.779Z,1.84
2019-01-29T10:07:37.777Z,1.83
2019-01-29T10:08:37.969Z,1.83
2019-01-29T10:09:37.759Z,1.84
2019-01-29T10:10:37.655Z,1.95
2019-01-29T10:11:37.643Z,1.95
2019-01-29T10:12:37.689Z,1.95
2019-01-29T10:13:40.210Z,1.88
2019-01-29T10:14:37.674Z,1.93
2019-01-29T10:15:37.620Z,1.90
2019-01-29T10:16:37.627Z,1.90
2019-01-29T10:17:37.786Z,1.90
2019-01-29T10:18:37.817Z,1.91
2019-01-29T10:19:37.829Z,1.81
2019-01-29T10:20:38.187Z,1.93
2019-01-29T10:21:37.609Z,2.00
2019-01-29T10:22:37.605Z,1.98
2019-01-29T10:23:37.717Z,1.88
2019-01-29T10:24:37.564Z,1.99
2019-01-29T10:25:38.232Z,1.95
2019-01-29T10:26:37.481Z,1.93
2019-01-29T10:27:37.689Z,2.02
2019-01-29T10:28:37.617Z,2.07
2019-01-29T10:29:37.654Z,2.02
2019-01-29T10:30:37.540Z,1.93
2019-01-29T10:31:39.519Z,1.93
2019-01-29T10:32:37.503Z,1.95
2019-01-29T10:33:37.507Z,1.95
2019-01-29T10:34:37.571Z,1.93
2019-01-29T10:35:37.503Z,2.10
2019-01-29T10:36:37.451Z,1.99
2019-01-29T10:37:37.433Z,2.05
2019-01-29T10:38:37.357Z,2.02
2019-01-29T10:39:39.528Z,2.05
2019-01-29T10:40:37.438Z,2.14
2019-01-29T10:41:39.434Z,2.07
2019-01-29T10:42:37.372Z,2.09
2019-01-29T10:44:38.625Z,2.10
2019-01-29T10:45:37.365Z,2.10
2019-01-29T10:46:37.341Z,2.07
2019-01-29T10:47:37.409Z,2.16
2019-01-29T10:49:38.484Z,2.25
2019-01-29T10:50:37.320Z,2.30
2019-01-29T10:51:39.326Z,2.25
2019-01-29T10:52:37.249Z,2.27
2019-01-29T10:53:39.357Z,2.27
2019-01-29T10:54:37.300Z,2.23
2019-01-29T10:55:47.046Z,2.18
2019-01-29T10:56:38.307Z,2.20
2019-01-29T10:57:37.201Z,2.20
2019-01-29T10:58:37.169Z,2.24
2019-01-29T10:59:37.215Z,2.28
2019-01-29T11:00:37.191Z,2.27
2019-01-29T11:01:37.132Z,2.39
2019-01-29T11:02:37.154Z,2.35
2019-01-29T11:03:37.205Z,2.27
2019-01-29T11:05:38.643Z,2.39
2019-01-29T11:06:37.081Z,2.41
2019-01-29T11:07:37.083Z,2.31
2019-01-29T11:08:41.239Z,2.24
2019-01-29T11:09:38.185Z,2.31
2019-01-29T11:10:37.096Z,2.38
2019-01-29T11:11:37.063Z,2.38
2019-01-29T11:14:04.697Z,2.39
2019-01-29T11:15:04.676Z,2.25
2019-01-29T11:16:05.198Z,2.28
2019-01-29T11:17:04.799Z,2.25
2019-01-29T11:18:07.728Z,2.31
2019-01-29T11:20:06.241Z,2.25
2019-01-29T11:21:25.704Z,2.34
2019-01-29T11:22:04.613Z,2.39
2019-01-29T11:25:33.057Z,2.42
2019-01-29T11:26:32.151Z,2.35
2019-01-29T11:29:16.999Z,2.38
2019-01-29T11:31:19.917Z,2.56
2019-01-29T11:32:16.835Z,2.54
2019-01-29T11:33:20.731Z,2.45
2019-01-29T11:34:16.778Z,2.46
2019-01-29T11:35:20.791Z,2.39
2019-01-29T11:36:26.636Z,2.39
2019-01-29T11:39:03.076Z,2.49
2019-01-29T11:41:03.928Z,2.34
2019-01-29T11:42:02.999Z,2.35
2019-01-29T11:43:25.591Z,2.35
2019-01-29T11:44:06.015Z,2.34
2019-01-29T11:46:14.577Z,2.36
2019-01-29T11:47:14.490Z,2.46
2019-01-29T11:48:14.414Z,2.49
2019-01-29T11:49:14.498Z,2.52
2019-01-29T11:50:14.420Z,2.43
2019-01-29T11:52:24.894Z,2.52
2019-01-29T11:53:24.778Z,2.54
2019-01-29T11:54:28.903Z,2.39
2019-01-29T11:56:51.404Z,2.49
2019-01-29T11:57:51.358Z,2.46
2019-01-29T11:58:51.428Z,2.54
2019-01-29T11:59:51.431Z,2.54
2019-01-29T12:00:53.464Z,2.56
2019-01-29T12:01:51.280Z,2.63
2019-01-29T12:02:53.378Z,2.71
2019-01-29T12:05:01.702Z,2.66
2019-01-29T12:06:01.511Z,2.77
2019-01-29T12:07:51.123Z,2.77
2019-01-29T12:09:03.250Z,2.93
2019-01-29T12:10:03.572Z,3.06
2019-01-29T12:12:29.618Z,3.02
2019-01-29T12:13:33.617Z,3.13
2019-01-29T12:14:32.705Z,2.97
2019-01-29T12:15:30.690Z,3.00
2019-01-29T12:16:29.518Z,3.11
2019-01-29T12:18:10.953Z,3.17
2019-01-29T12:18:33.113Z,3.11
2019-01-29T12:19:29.472Z,3.08
2019-01-29T12:20:29.474Z,3.11
2019-01-29T12:21:45.957Z,3.13
2019-01-29T12:22:33.476Z,3.11
2019-01-29T12:23:32.063Z,3.35
2019-01-29T12:24:29.402Z,3.48
2019-01-29T12:25:46.909Z,3.55
2019-01-29T12:28:30.626Z,4.24
2019-01-29T12:29:29.341Z,5.12
2019-01-29T12:30:33.437Z,4.77
2019-01-29T12:32:38.549Z,4.59
2019-01-29T12:33:50.752Z,4.60
2019-01-29T12:34:29.380Z,4.40
2019-01-29T12:36:30.622Z,4.09
2019-01-29T12:37:29.360Z,3.97
2019-01-29T12:38:30.327Z,4.14
2019-01-29T12:39:29.394Z,4.04
2019-01-29T12:40:32.208Z,3.83
2019-01-29T12:41:31.341Z,3.75
2019-01-29T12:44:30.532Z,3.66
2019-01-29T12:45:58.781Z,3.65
2019-01-29T12:46:30.379Z,3.57
2019-01-29T12:47:29.184Z,3.58
2019-01-29T12:48:31.369Z,3.52
2019-01-29T12:49:30.270Z,3.33
2019-01-29T12:50:29.109Z,3.31
2019-01-29T12:52:30.547Z,3.42
2019-01-29T12:53:29.278Z,3.47
2019-01-29T12:54:29.485Z,3.75
2019-01-29T12:55:29.086Z,3.60
2019-01-29T12:56:29.092Z,3.66
2019-01-29T12:57:29.100Z,3.62
2019-01-29T12:59:30.216Z,3.58
2019-01-29T13:00:29.022Z,3.54
2019-01-29T13:01:29.035Z,3.55
2019-01-29T13:02:29.084Z,3.65
2019-01-29T13:03:29.095Z,3.62
2019-01-29T13:04:29.128Z,3.78
2019-01-29T13:05:32.663Z,4.52
2019-01-29T13:06:29.156Z,5.39
2019-01-29T13:07:28.980Z,5.67
2019-01-29T13:08:28.992Z,5.61
2019-01-29T13:09:28.976Z,5.38
2019-01-29T13:10:31.094Z,5.18
2019-01-29T13:11:31.680Z,5.00
2019-01-29T13:12:28.948Z,4.59
2019-01-29T13:13:30.860Z,4.23
2019-01-29T13:14:28.846Z,4.04
2019-01-29T13:15:30.895Z,3.70
2019-01-29T13:16:28.923Z,3.79
2019-01-29T13:17:28.994Z,3.78
2019-01-29T13:18:28.838Z,3.79
2019-01-29T13:19:28.846Z,3.69
2019-01-29T13:20:28.916Z,3.62
2019-01-29T13:21:28.866Z,3.42
2019-01-29T13:22:28.812Z,3.48
2019-01-29T13:23:30.834Z,3.40
2019-01-29T13:24:28.780Z,3.35
2019-01-29T13:25:28.831Z,3.36
2019-01-29T13:26:30.018Z,3.31
2019-01-29T13:27:28.742Z,3.29
2019-01-29T13:28:28.720Z,3.31
2019-01-29T13:29:30.774Z,3.17
2019-01-29T13:30:30.508Z,3.31
2019-01-29T13:31:28.636Z,3.29
2019-01-29T13:32:28.848Z,3.39
2019-01-29T13:33:28.684Z,3.32
2019-01-29T13:34:28.984Z,3.43
2019-01-29T13:35:30.706Z,3.45
2019-01-29T13:36:28.768Z,3.55
2019-01-29T13:37:28.624Z,3.54
2019-01-29T13:38:28.626Z,3.57
2019-01-29T13:39:28.650Z,3.65
2019-01-29T13:40:28.620Z,3.61
2019-01-29T13:41:28.690Z,3.69
2019-01-29T13:43:29.626Z,3.68
2019-01-29T13:44:28.522Z,3.76
2019-01-29T13:45:28.515Z,3.76
2019-01-29T13:46:28.538Z,3.69
2019-01-29T13:47:28.467Z,3.68
2019-01-29T13:48:28.600Z,3.66
2019-01-29T13:49:28.469Z,3.57
2019-01-29T13:50:28.459Z,3.62
2019-01-29T13:51:28.462Z,3.58
2019-01-29T13:52:28.567Z,3.62
2019-01-29T13:53:28.474Z,3.62
2019-01-29T13:54:28.482Z,3.61
2019-01-29T13:55:28.420Z,3.72
2019-01-29T13:56:38.775Z,3.61
2019-01-29T13:58:29.451Z,3.62
2019-01-29T14:00:29.471Z,3.58
2019-01-29T14:01:28.344Z,3.50
2019-01-29T14:02:32.062Z,3.42
2019-01-29T14:03:30.323Z,3.28
2019-01-29T14:04:28.348Z,3.43
2019-01-29T14:05:28.265Z,3.48
2019-01-29T14:06:36.657Z,3.60
2019-01-29T14:07:30.129Z,3.57
2019-01-29T14:08:28.305Z,3.55
2019-01-29T14:09:32.272Z,3.50
2019-01-29T14:10:28.219Z,3.51
2019-01-29T14:11:28.234Z,3.51
2019-01-29T14:12:30.212Z,3.52
2019-01-29T14:13:28.240Z,3.40
2019-01-29T14:14:28.191Z,3.42
2019-01-29T14:15:28.166Z,3.45
2019-01-29T14:16:28.161Z,3.45
2019-01-29T14:17:28.147Z,3.52
2019-01-29T14:18:28.231Z,3.52
2019-01-29T14:19:28.170Z,3.58